sensor_id;sensor_type;location;lat;lon;timestamp;pressure;altitude;pressure_sealevel;temperature;humidity
6198;BME280;3132;42.622;23.328;2022-12-29T00:01:31;93656.66;;;4.05;100.00
6198;BME280;3132;42.622;23.328;2022-12-29T00:03:57;93659.00;;;4.06;100.00
6198;BME280;3132;42.622;23.328;2022-12-29T00:06:22;93648.50;;;3.83;100.00
6198;BME280;3132;42.622;23.328;2022-12-29T00:08:48;93671.81;;;4.01;100.00
6198;BME280;3132;42.622;23.328;2022-12-29T00:11:19;93667.78;;;4.05;100.00
6198;BME280;3132;42.622;23.328;2022-12-29T00:13:46;93669.13;;;4.08;100.00
6198;BME280;3132;42.622;23.328;2022-12-29T00:16:31;93671.63;;;3.96;100.00
6198;BME280;3132;42.622;23.328;2022-12-29T00:18:58;93681.97;;;3.96;100.00
6198;BME280;3132;42.622;23.328;2022-12-29T00:21:24;93676.84;;;3.90;100.00
6198;BME280;3132;42.622;23.328;2022-12-29T00:24:13;93670.84;;;3.96;100.00
6198;BME280;3132;42.622;23.328;2022-12-29T00:29:47;93673.69;;;4.12;100.00
6198;BME280;3132;42.622;23.328;2022-12-29T00:32:32;93680.97;;;3.97;100.00
6198;BME280;3132;42.622;23.328;2022-12-29T00:35:32;93679.41;;;3.96;100.00
6198;BME280;3132;42.622;23.328;2022-12-29T00:38:02;93680.81;;;3.92;100.00
6198;BME280;3132;42.622;23.328;2022-12-29T00:40:46;93677.06;;;3.88;100.00
6198;BME280;3132;42.622;23.328;2022-12-29T00:43:30;93677.06;;;3.88;100.00
6198;BME280;3132;42.622;23.328;2022-12-29T00:46:14;93680.28;;;3.84;100.00
6198;BME280;3132;42.622;23.328;2022-12-29T00:48:39;93661.03;;;3.55;100.00
6198;BME280;3132;42.622;23.328;2022-12-29T00:51:23;93651.00;;;3.72;100.00
6198;BME280;3132;42.622;23.328;2022-12-29T00:53:49;93667.44;;;3.77;100.00
6198;BME280;3132;42.622;23.328;2022-12-29T00:56:14;93678.78;;;3.76;100.00
6198;BME280;3132;42.622;23.328;2022-12-29T00:58:39;93656.94;;;3.72;100.00
6198;BME280;3132;42.622;23.328;2022-12-29T01:01:07;93682.78;;;3.97;100.00
6198;BME280;3132;42.622;23.328;2022-12-29T01:03:35;93675.50;;;3.87;100.00
6198;BME280;3132;42.622;23.328;2022-12-29T01:06:01;93678.34;;;3.79;100.00
6198;BME280;3132;42.622;23.328;2022-12-29T01:08:28;93679.88;;;3.87;100.00
6198;BME280;3132;42.622;23.328;2022-12-29T01:11:05;93667.25;;;3.72;100.00
6198;BME280;3132;42.622;23.328;2022-12-29T01:13:31;93683.03;;;3.64;100.00
6198;BME280;3132;42.622;23.328;2022-12-29T01:15:57;93681.91;;;3.54;100.00
6198;BME280;3132;42.622;23.328;2022-12-29T01:18:23;93670.69;;;3.42;100.00
6198;BME280;3132;42.622;23.328;2022-12-29T01:20:49;93679.47;;;3.34;100.00
6198;BME280;3132;42.622;23.328;2022-12-29T01:23:14;93669.41;;;3.51;100.00
6198;BME280;3132;42.622;23.328;2022-12-29T01:25:40;93674.97;;;3.54;100.00
6198;BME280;3132;42.622;23.328;2022-12-29T01:28:05;93663.88;;;3.47;100.00
6198;BME280;3132;42.622;23.328;2022-12-29T01:30:34;93666.59;;;3.59;100.00
6198;BME280;3132;42.622;23.328;2022-12-29T01:32:59;93665.34;;;3.37;100.00
6198;BME280;3132;42.622;23.328;2022-12-29T01:35:25;93637.34;;;3.40;100.00
6198;BME280;3132;42.622;23.328;2022-12-29T01:37:50;93672.97;;;3.56;100.00
6198;BME280;3132;42.622;23.328;2022-12-29T01:40:15;93663.31;;;3.70;100.00
6198;BME280;3132;42.622;23.328;2022-12-29T01:42:41;93649.31;;;3.59;100.00
6198;BME280;3132;42.622;23.328;2022-12-29T01:45:13;93642.72;;;3.63;100.00
6198;BME280;3132;42.622;23.328;2022-12-29T01:48:04;93648.03;;;3.44;100.00
6198;BME280;3132;42.622;23.328;2022-12-29T01:50:34;93652.34;;;3.74;100.00
6198;BME280;3132;42.622;23.328;2022-12-29T01:53:05;93650.88;;;3.85;100.00
6198;BME280;3132;42.622;23.328;2022-12-29T01:55:36;93639.72;;;3.66;100.00
6198;BME280;3132;42.622;23.328;2022-12-29T01:58:04;93628.03;;;3.64;100.00
6198;BME280;3132;42.622;23.328;2022-12-29T02:00:30;93656.19;;;3.90;100.00
6198;BME280;3132;42.622;23.328;2022-12-29T02:02:56;93657.25;;;3.82;100.00
6198;BME280;3132;42.622;23.328;2022-12-29T02:05:34;93649.41;;;3.71;100.00
6198;BME280;3132;42.622;23.328;2022-12-29T02:08:03;93626.69;;;3.79;100.00
6198;BME280;3132;42.622;23.328;2022-12-29T02:10:31;93646.19;;;4.00;100.00
6198;BME280;3132;42.622;23.328;2022-12-29T02:12:58;93616.38;;;3.79;100.00
6198;BME280;3132;42.622;23.328;2022-12-29T02:15:34;93630.47;;;4.01;100.00
6198;BME280;3132;42.622;23.328;2022-12-29T02:31:30;93640.81;;;4.01;100.00
6198;BME280;3132;42.622;23.328;2022-12-29T02:37:06;93616.81;;;3.94;100.00
6198;BME280;3132;42.622;23.328;2022-12-29T02:42:59;93634.03;;;3.82;100.00
6198;BME280;3132;42.622;23.328;2022-12-29T02:45:36;93628.91;;;4.18;100.00
6198;BME280;3132;42.622;23.328;2022-12-29T02:48:10;93630.31;;;4.14;100.00
6198;BME280;3132;42.622;23.328;2022-12-29T02:50:57;93638.06;;;4.14;100.00
6198;BME280;3132;42.622;23.328;2022-12-29T02:53:24;93639.03;;;4.20;100.00
6198;BME280;3132;42.622;23.328;2022-12-29T02:56:10;93627.47;;;4.22;100.00
6198;BME280;3132;42.622;23.328;2022-12-29T02:58:35;93630.03;;;4.22;100.00
6198;BME280;3132;42.622;23.328;2022-12-29T03:03:51;93630.25;;;4.21;100.00
6198;BME280;3132;42.622;23.328;2022-12-29T03:11:15;93621.09;;;4.25;100.00
6198;BME280;3132;42.622;23.328;2022-12-29T03:14:06;93583.66;;;3.91;100.00
6198;BME280;3132;42.622;23.328;2022-12-29T03:17:01;93614.88;;;4.08;100.00
6198;BME280;3132;42.622;23.328;2022-12-29T03:19:35;93625.72;;;3.98;100.00
6198;BME280;3132;42.622;23.328;2022-12-29T03:22:04;93622.50;;;4.03;100.00
6198;BME280;3132;42.622;23.328;2022-12-29T03:24:55;93607.44;;;3.75;100.00
6198;BME280;3132;42.622;23.328;2022-12-29T03:27:47;93609.16;;;3.63;100.00
6198;BME280;3132;42.622;23.328;2022-12-29T03:30:14;93561.19;;;3.31;100.00
6198;BME280;3132;42.622;23.328;2022-12-29T03:32:45;93615.16;;;3.57;100.00
6198;BME280;3132;42.622;23.328;2022-12-29T03:35:14;93606.97;;;3.42;100.00
6198;BME280;3132;42.622;23.328;2022-12-29T03:37:49;93608.06;;;3.28;100.00
6198;BME280;3132;42.622;23.328;2022-12-29T03:40:16;93616.72;;;3.09;100.00
6198;BME280;3132;42.622;23.328;2022-12-29T03:42:42;93613.75;;;3.05;100.00
6198;BME280;3132;42.622;23.328;2022-12-29T03:45:09;93617.56;;;3.03;100.00
6198;BME280;3132;42.622;23.328;2022-12-29T03:47:34;93599.91;;;2.69;100.00
6198;BME280;3132;42.622;23.328;2022-12-29T03:50:00;93614.78;;;2.67;100.00
6198;BME280;3132;42.622;23.328;2022-12-29T03:52:25;93617.84;;;2.82;100.00
6198;BME280;3132;42.622;23.328;2022-12-29T03:54:50;93599.81;;;2.44;100.00
6198;BME280;3132;42.622;23.328;2022-12-29T03:57:16;93621.81;;;2.47;100.00
6198;BME280;3132;42.622;23.328;2022-12-29T03:59:41;93630.69;;;2.51;100.00
6198;BME280;3132;42.622;23.328;2022-12-29T04:02:06;93616.84;;;2.52;100.00
6198;BME280;3132;42.622;23.328;2022-12-29T04:04:32;93621.59;;;2.48;100.00
6198;BME280;3132;42.622;23.328;2022-12-29T04:06:57;93632.09;;;2.47;100.00
6198;BME280;3132;42.622;23.328;2022-12-29T04:09:23;93643.44;;;2.46;100.00
6198;BME280;3132;42.622;23.328;2022-12-29T04:11:48;93636.72;;;2.32;100.00
6198;BME280;3132;42.622;23.328;2022-12-29T04:14:13;93640.28;;;2.31;100.00
6198;BME280;3132;42.622;23.328;2022-12-29T04:16:39;93642.28;;;2.29;100.00
6198;BME280;3132;42.622;23.328;2022-12-29T04:19:05;93629.78;;;2.26;100.00
6198;BME280;3132;42.622;23.328;2022-12-29T04:21:31;93642.72;;;2.19;100.00
6198;BME280;3132;42.622;23.328;2022-12-29T04:23:56;93626.88;;;2.09;100.00
6198;BME280;3132;42.622;23.328;2022-12-29T04:26:22;93639.34;;;2.12;100.00
6198;BME280;3132;42.622;23.328;2022-12-29T04:28:47;93641.91;;;2.19;100.00
6198;BME280;3132;42.622;23.328;2022-12-29T04:31:13;93633.63;;;2.04;100.00
6198;BME280;3132;42.622;23.328;2022-12-29T04:33:38;93646.09;;;2.13;100.00
6198;BME280;3132;42.622;23.328;2022-12-29T04:36:04;93598.22;;;1.86;100.00
6198;BME280;3132;42.622;23.328;2022-12-29T04:38:29;93653.53;;;2.41;100.00
6198;BME280;3132;42.622;23.328;2022-12-29T04:40:55;93635.94;;;2.31;100.00
6198;BME280;3132;42.622;23.328;2022-12-29T04:43:20;93637.13;;;2.29;100.00
6198;BME280;3132;42.622;23.328;2022-12-29T04:45:47;93627.19;;;2.39;100.00
6198;BME280;3132;42.622;23.328;2022-12-29T04:48:13;93649.31;;;2.53;100.00
6198;BME280;3132;42.622;23.328;2022-12-29T04:50:39;93648.88;;;2.69;100.00
6198;BME280;3132;42.622;23.328;2022-12-29T04:53:05;93666.22;;;2.86;100.00
6198;BME280;3132;42.622;23.328;2022-12-29T04:55:30;93652.75;;;2.84;100.00
6198;BME280;3132;42.622;23.328;2022-12-29T04:57:56;93650.22;;;2.78;100.00
6198;BME280;3132;42.622;23.328;2022-12-29T05:00:22;93668.53;;;3.01;100.00
6198;BME280;3132;42.622;23.328;2022-12-29T05:02:47;93666.59;;;2.96;100.00
6198;BME280;3132;42.622;23.328;2022-12-29T05:05:13;93668.72;;;3.06;100.00
6198;BME280;3132;42.622;23.328;2022-12-29T05:07:38;93651.09;;;3.03;100.00
6198;BME280;3132;42.622;23.328;2022-12-29T05:10:04;93673.41;;;3.22;100.00
6198;BME280;3132;42.622;23.328;2022-12-29T05:12:34;93670.41;;;3.25;100.00
6198;BME280;3132;42.622;23.328;2022-12-29T05:15:00;93668.59;;;3.25;100.00
6198;BME280;3132;42.622;23.328;2022-12-29T05:20:42;93656.28;;;3.27;100.00
6198;BME280;3132;42.622;23.328;2022-12-29T05:23:07;93670.41;;;3.25;100.00
6198;BME280;3132;42.622;23.328;2022-12-29T05:25:33;93675.13;;;3.28;100.00
6198;BME280;3132;42.622;23.328;2022-12-29T05:27:58;93666.53;;;3.09;100.00
6198;BME280;3132;42.622;23.328;2022-12-29T05:30:24;93667.66;;;3.20;100.00
6198;BME280;3132;42.622;23.328;2022-12-29T05:32:49;93672.22;;;3.18;100.00
6198;BME280;3132;42.622;23.328;2022-12-29T05:35:14;93650.50;;;3.32;100.00
6198;BME280;3132;42.622;23.328;2022-12-29T05:37:40;93659.09;;;3.51;100.00
6198;BME280;3132;42.622;23.328;2022-12-29T05:40:06;93670.06;;;3.46;100.00
6198;BME280;3132;42.622;23.328;2022-12-29T05:42:31;93669.78;;;3.54;100.00
6198;BME280;3132;42.622;23.328;2022-12-29T05:44:57;93658.16;;;3.45;100.00
6198;BME280;3132;42.622;23.328;2022-12-29T05:47:23;93670.13;;;3.64;100.00
6198;BME280;3132;42.622;23.328;2022-12-29T05:49:48;93659.94;;;3.45;100.00
6198;BME280;3132;42.622;23.328;2022-12-29T05:52:45;93669.91;;;3.66;100.00
6198;BME280;3132;42.622;23.328;2022-12-29T05:55:10;93681.56;;;3.75;100.00
6198;BME280;3132;42.622;23.328;2022-12-29T05:57:36;93682.06;;;3.59;100.00
6198;BME280;3132;42.622;23.328;2022-12-29T06:00:05;93677.88;;;3.64;100.00
6198;BME280;3132;42.622;23.328;2022-12-29T06:02:31;93675.69;;;3.61;100.00
6198;BME280;3132;42.622;23.328;2022-12-29T06:04:56;93674.13;;;3.60;100.00
6198;BME280;3132;42.622;23.328;2022-12-29T06:07:22;93692.66;;;3.75;100.00
6198;BME280;3132;42.622;23.328;2022-12-29T06:09:47;93681.94;;;3.78;100.00
6198;BME280;3132;42.622;23.328;2022-12-29T06:12:13;93681.88;;;3.85;100.00
6198;BME280;3132;42.622;23.328;2022-12-29T06:14:38;93685.28;;;3.79;100.00
6198;BME280;3132;42.622;23.328;2022-12-29T06:17:03;93648.28;;;3.60;100.00
6198;BME280;3132;42.622;23.328;2022-12-29T06:19:29;93690.09;;;4.00;100.00
6198;BME280;3132;42.622;23.328;2022-12-29T06:21:54;93692.59;;;4.06;100.00
6198;BME280;3132;42.622;23.328;2022-12-29T06:24:20;93688.78;;;4.15;100.00
6198;BME280;3132;42.622;23.328;2022-12-29T06:26:46;93688.19;;;4.31;100.00
6198;BME280;3132;42.622;23.328;2022-12-29T06:29:11;93698.19;;;4.28;100.00
6198;BME280;3132;42.622;23.328;2022-12-29T06:31:38;93681.22;;;4.14;100.00
6198;BME280;3132;42.622;23.328;2022-12-29T06:34:03;93692.44;;;4.44;100.00
6198;BME280;3132;42.622;23.328;2022-12-29T06:36:29;93698.84;;;4.41;100.00
6198;BME280;3132;42.622;23.328;2022-12-29T06:38:54;93696.69;;;4.38;100.00
6198;BME280;3132;42.622;23.328;2022-12-29T06:41:20;93690.22;;;4.29;100.00
6198;BME280;3132;42.622;23.328;2022-12-29T06:43:46;93697.81;;;4.24;100.00
6198;BME280;3132;42.622;23.328;2022-12-29T06:46:11;93695.78;;;3.84;100.00
6198;BME280;3132;42.622;23.328;2022-12-29T06:48:37;93673.91;;;3.86;100.00
6198;BME280;3132;42.622;23.328;2022-12-29T06:51:02;93700.50;;;4.11;100.00
6198;BME280;3132;42.622;23.328;2022-12-29T06:53:27;93675.38;;;4.00;100.00
6198;BME280;3132;42.622;23.328;2022-12-29T06:55:53;93692.50;;;4.19;100.00
6198;BME280;3132;42.622;23.328;2022-12-29T06:58:18;93683.94;;;4.19;100.00
6198;BME280;3132;42.622;23.328;2022-12-29T07:00:44;93701.34;;;4.30;100.00
6198;BME280;3132;42.622;23.328;2022-12-29T07:03:09;93714.84;;;4.32;100.00
6198;BME280;3132;42.622;23.328;2022-12-29T07:05:35;93706.72;;;4.28;100.00
6198;BME280;3132;42.622;23.328;2022-12-29T07:08:00;93690.56;;;4.33;100.00
6198;BME280;3132;42.622;23.328;2022-12-29T07:10:25;93714.41;;;4.35;100.00
6198;BME280;3132;42.622;23.328;2022-12-29T07:12:51;93714.03;;;4.31;100.00
6198;BME280;3132;42.622;23.328;2022-12-29T07:15:16;93702.78;;;4.26;100.00
6198;BME280;3132;42.622;23.328;2022-12-29T07:17:42;93707.47;;;4.35;100.00
6198;BME280;3132;42.622;23.328;2022-12-29T07:20:08;93698.28;;;4.57;100.00
6198;BME280;3132;42.622;23.328;2022-12-29T07:22:34;93701.81;;;4.45;100.00
6198;BME280;3132;42.622;23.328;2022-12-29T07:24:59;93695.25;;;4.24;100.00
6198;BME280;3132;42.622;23.328;2022-12-29T07:27:24;93709.16;;;4.23;100.00
6198;BME280;3132;42.622;23.328;2022-12-29T07:29:50;93702.69;;;4.14;100.00
6198;BME280;3132;42.622;23.328;2022-12-29T07:32:15;93683.00;;;4.13;100.00
6198;BME280;3132;42.622;23.328;2022-12-29T07:34:41;93703.72;;;4.31;100.00
6198;BME280;3132;42.622;23.328;2022-12-29T07:37:06;93681.31;;;4.25;100.00
6198;BME280;3132;42.622;23.328;2022-12-29T07:39:32;93712.53;;;4.24;100.00
6198;BME280;3132;42.622;23.328;2022-12-29T07:41:57;93705.38;;;4.26;100.00
6198;BME280;3132;42.622;23.328;2022-12-29T07:44:22;93709.06;;;4.54;100.00
6198;BME280;3132;42.622;23.328;2022-12-29T07:46:48;93695.41;;;4.47;100.00
6198;BME280;3132;42.622;23.328;2022-12-29T07:49:13;93698.50;;;4.13;100.00
6198;BME280;3132;42.622;23.328;2022-12-29T07:51:39;93709.19;;;4.41;100.00
6198;BME280;3132;42.622;23.328;2022-12-29T07:54:04;93708.41;;;4.59;100.00
6198;BME280;3132;42.622;23.328;2022-12-29T07:56:29;93699.53;;;4.12;100.00
6198;BME280;3132;42.622;23.328;2022-12-29T07:58:55;93721.66;;;4.26;100.00
6198;BME280;3132;42.622;23.328;2022-12-29T08:01:20;93702.78;;;4.44;100.00
6198;BME280;3132;42.622;23.328;2022-12-29T08:03:48;93702.00;;;4.43;100.00
6198;BME280;3132;42.622;23.328;2022-12-29T08:06:14;93722.44;;;4.69;100.00
6198;BME280;3132;42.622;23.328;2022-12-29T08:08:40;93722.69;;;4.79;100.00
6198;BME280;3132;42.622;23.328;2022-12-29T08:11:05;93720.56;;;4.94;100.00
6198;BME280;3132;42.622;23.328;2022-12-29T08:13:31;93708.34;;;4.83;100.00
6198;BME280;3132;42.622;23.328;2022-12-29T08:15:59;93720.25;;;5.03;100.00
6198;BME280;3132;42.622;23.328;2022-12-29T08:18:24;93729.75;;;4.90;100.00
6198;BME280;3132;42.622;23.328;2022-12-29T08:20:50;93727.72;;;4.92;100.00
6198;BME280;3132;42.622;23.328;2022-12-29T08:23:15;93722.13;;;4.95;100.00
6198;BME280;3132;42.622;23.328;2022-12-29T08:25:41;93713.34;;;5.15;100.00
6198;BME280;3132;42.622;23.328;2022-12-29T08:28:06;93704.56;;;5.16;100.00
6198;BME280;3132;42.622;23.328;2022-12-29T08:30:31;93722.53;;;5.29;99.70
6198;BME280;3132;42.622;23.328;2022-12-29T08:32:57;93702.16;;;5.03;100.00
6198;BME280;3132;42.622;23.328;2022-12-29T08:35:22;93723.63;;;5.03;100.00
6198;BME280;3132;42.622;23.328;2022-12-29T08:37:48;93724.53;;;5.27;100.00
6198;BME280;3132;42.622;23.328;2022-12-29T08:40:13;93718.16;;;5.41;99.72
6198;BME280;3132;42.622;23.328;2022-12-29T08:42:39;93712.53;;;5.44;98.91
6198;BME280;3132;42.622;23.328;2022-12-29T08:45:05;93717.81;;;6.08;100.00
6198;BME280;3132;42.622;23.328;2022-12-29T08:47:31;93716.78;;;6.09;100.00
6198;BME280;3132;42.622;23.328;2022-12-29T08:49:56;93723.34;;;6.11;100.00
6198;BME280;3132;42.622;23.328;2022-12-29T08:52:22;93724.59;;;6.43;100.00
6198;BME280;3132;42.622;23.328;2022-12-29T08:54:48;93723.09;;;6.24;98.67
6198;BME280;3132;42.622;23.328;2022-12-29T08:57:13;93726.59;;;6.65;93.79
6198;BME280;3132;42.622;23.328;2022-12-29T08:59:38;93724.38;;;6.57;92.71
6198;BME280;3132;42.622;23.328;2022-12-29T09:02:04;93700.78;;;6.12;93.69
6198;BME280;3132;42.622;23.328;2022-12-29T09:04:29;93720.28;;;6.03;94.95
6198;BME280;3132;42.622;23.328;2022-12-29T09:06:54;93707.44;;;6.08;95.08
6198;BME280;3132;42.622;23.328;2022-12-29T09:09:20;93710.00;;;5.96;94.59
6198;BME280;3132;42.622;23.328;2022-12-29T09:11:45;93706.75;;;6.01;94.69
6198;BME280;3132;42.622;23.328;2022-12-29T09:14:11;93711.28;;;6.17;93.37
6198;BME280;3132;42.622;23.328;2022-12-29T09:16:37;93677.31;;;5.84;94.02
6198;BME280;3132;42.622;23.328;2022-12-29T09:19:03;93694.13;;;5.93;94.59
6198;BME280;3132;42.622;23.328;2022-12-29T09:21:29;93705.97;;;6.00;94.32
6198;BME280;3132;42.622;23.328;2022-12-29T09:23:54;93695.16;;;6.03;93.04
6198;BME280;3132;42.622;23.328;2022-12-29T09:26:19;93704.81;;;5.96;94.20
6198;BME280;3132;42.622;23.328;2022-12-29T09:28:45;93707.13;;;5.75;95.21
6198;BME280;3132;42.622;23.328;2022-12-29T09:31:11;93695.81;;;5.99;95.02
6198;BME280;3132;42.622;23.328;2022-12-29T09:33:36;93684.22;;;6.01;94.25
6198;BME280;3132;42.622;23.328;2022-12-29T09:36:03;93694.94;;;6.05;93.96
6198;BME280;3132;42.622;23.328;2022-12-29T09:38:29;93700.00;;;6.23;93.27
6198;BME280;3132;42.622;23.328;2022-12-29T09:41:10;93693.00;;;6.12;92.43
6198;BME280;3132;42.622;23.328;2022-12-29T09:46:35;93683.91;;;6.21;92.00
6198;BME280;3132;42.622;23.328;2022-12-29T09:51:35;93680.03;;;6.46;90.92
6198;BME280;3132;42.622;23.328;2022-12-29T09:57:01;93683.97;;;6.49;90.60
6198;BME280;3132;42.622;23.328;2022-12-29T09:59:39;93669.09;;;6.56;89.98
6198;BME280;3132;42.622;23.328;2022-12-29T10:02:20;93689.63;;;6.46;90.18
6198;BME280;3132;42.622;23.328;2022-12-29T10:04:48;93657.59;;;6.29;90.83
6198;BME280;3132;42.622;23.328;2022-12-29T10:24:03;93655.47;;;7.00;87.28
6198;BME280;3132;42.622;23.328;2022-12-29T10:26:37;93677.81;;;6.90;87.84
6198;BME280;3132;42.622;23.328;2022-12-29T10:29:06;93670.75;;;7.13;87.19
6198;BME280;3132;42.622;23.328;2022-12-29T10:31:40;93673.88;;;7.27;85.64
6198;BME280;3132;42.622;23.328;2022-12-29T10:34:21;93671.50;;;6.97;86.21
6198;BME280;3132;42.622;23.328;2022-12-29T10:36:52;93661.84;;;6.81;87.26
6198;BME280;3132;42.622;23.328;2022-12-29T10:39:34;93659.47;;;6.68;87.83
6198;BME280;3132;42.622;23.328;2022-12-29T10:44:47;93658.47;;;6.69;88.12
6198;BME280;3132;42.622;23.328;2022-12-29T10:47:19;93648.03;;;6.92;87.92
6198;BME280;3132;42.622;23.328;2022-12-29T10:49:47;93648.53;;;7.06;86.78
6198;BME280;3132;42.622;23.328;2022-12-29T10:52:14;93647.94;;;7.15;86.24
6198;BME280;3132;42.622;23.328;2022-12-29T10:55:00;93644.69;;;7.36;86.24
6198;BME280;3132;42.622;23.328;2022-12-29T10:57:32;93638.97;;;7.51;84.54
6198;BME280;3132;42.622;23.328;2022-12-29T10:59:58;93641.56;;;7.34;84.89
6198;BME280;3132;42.622;23.328;2022-12-29T11:08:00;93625.63;;;7.31;85.18
6198;BME280;3132;42.622;23.328;2022-12-29T11:13:04;93612.31;;;7.72;83.34
6198;BME280;3132;42.622;23.328;2022-12-29T11:18:20;93615.59;;;7.67;83.83
6198;BME280;3132;42.622;23.328;2022-12-29T11:20:46;93613.25;;;7.82;83.12
6198;BME280;3132;42.622;23.328;2022-12-29T11:28:37;93614.19;;;7.76;83.75
6198;BME280;3132;42.622;23.328;2022-12-29T11:31:05;93613.94;;;7.94;82.42
6198;BME280;3132;42.622;23.328;2022-12-29T11:33:32;93611.66;;;7.98;82.19
6198;BME280;3132;42.622;23.328;2022-12-29T11:36:20;93607.56;;;8.18;80.61
6198;BME280;3132;42.622;23.328;2022-12-29T11:38:52;93605.75;;;7.53;83.65
6198;BME280;3132;42.622;23.328;2022-12-29T11:41:22;93598.81;;;7.58;83.79
6198;BME280;3132;42.622;23.328;2022-12-29T11:43:48;93600.09;;;7.72;83.68
6198;BME280;3132;42.622;23.328;2022-12-29T11:46:20;93596.63;;;7.83;82.22
6198;BME280;3132;42.622;23.328;2022-12-29T11:48:47;93601.28;;;7.65;83.90
6198;BME280;3132;42.622;23.328;2022-12-29T11:51:22;93601.34;;;7.70;84.35
6198;BME280;3132;42.622;23.328;2022-12-29T11:53:56;93588.34;;;8.03;82.13
6198;BME280;3132;42.622;23.328;2022-12-29T11:58:57;93582.38;;;7.86;82.46
6198;BME280;3132;42.622;23.328;2022-12-29T12:01:33;93597.03;;;7.92;82.67
6198;BME280;3132;42.622;23.328;2022-12-29T12:06:29;93605.53;;;7.87;82.90
6198;BME280;3132;42.622;23.328;2022-12-29T12:09:01;93591.50;;;8.43;79.79
6198;BME280;3132;42.622;23.328;2022-12-29T12:11:32;93590.13;;;8.36;79.93
6198;BME280;3132;42.622;23.328;2022-12-29T12:14:23;93591.00;;;8.25;80.81
6198;BME280;3132;42.622;23.328;2022-12-29T12:16:55;93581.06;;;8.22;81.46
6198;BME280;3132;42.622;23.328;2022-12-29T12:19:44;93579.00;;;8.24;81.72
6198;BME280;3132;42.622;23.328;2022-12-29T12:22:34;93587.28;;;8.59;79.79
6198;BME280;3132;42.622;23.328;2022-12-29T12:25:21;93593.50;;;8.58;79.37
6198;BME280;3132;42.622;23.328;2022-12-29T12:27:57;93547.25;;;8.22;80.27
6198;BME280;3132;42.622;23.328;2022-12-29T12:30:25;93582.91;;;8.43;80.06
6198;BME280;3132;42.622;23.328;2022-12-29T12:38:47;93581.38;;;8.08;82.60
6198;BME280;3132;42.622;23.328;2022-12-29T12:53:34;93572.25;;;8.66;80.29
6198;BME280;3132;42.622;23.328;2022-12-29T12:56:13;93569.78;;;8.54;80.37
6198;BME280;3132;42.622;23.328;2022-12-29T13:01:45;93557.25;;;8.30;81.76
6198;BME280;3132;42.622;23.328;2022-12-29T13:17:44;93558.75;;;7.54;85.76
6198;BME280;3132;42.622;23.328;2022-12-29T13:23:00;93575.28;;;7.65;86.04
6198;BME280;3132;42.622;23.328;2022-12-29T13:28:17;93570.28;;;7.30;88.12
6198;BME280;3132;42.622;23.328;2022-12-29T13:33:23;93572.91;;;7.30;88.41
6198;BME280;3132;42.622;23.328;2022-12-29T13:38:26;93560.59;;;7.09;89.04
6198;BME280;3132;42.622;23.328;2022-12-29T13:40:58;93566.34;;;7.11;89.25
6198;BME280;3132;42.622;23.328;2022-12-29T13:43:27;93573.22;;;7.17;88.99
6198;BME280;3132;42.622;23.328;2022-12-29T13:46:01;93566.78;;;7.08;88.66
6198;BME280;3132;42.622;23.328;2022-12-29T13:48:37;93586.22;;;6.89;90.31
6198;BME280;3132;42.622;23.328;2022-12-29T13:51:05;93577.81;;;6.99;90.06
6198;BME280;3132;42.622;23.328;2022-12-29T13:53:40;93584.69;;;7.21;88.93
6198;BME280;3132;42.622;23.328;2022-12-29T13:58:48;93576.22;;;7.42;87.99
6198;BME280;3132;42.622;23.328;2022-12-29T14:03:50;93577.38;;;7.35;88.71
6198;BME280;3132;42.622;23.328;2022-12-29T14:06:23;93572.19;;;7.35;88.47
6198;BME280;3132;42.622;23.328;2022-12-29T14:08:52;93573.88;;;7.41;88.26
6198;BME280;3132;42.622;23.328;2022-12-29T14:11:21;93578.13;;;7.47;87.97
6198;BME280;3132;42.622;23.328;2022-12-29T14:13:49;93577.00;;;7.43;88.29
6198;BME280;3132;42.622;23.328;2022-12-29T14:16:32;93576.38;;;7.36;88.22
6198;BME280;3132;42.622;23.328;2022-12-29T14:21:40;93586.38;;;6.71;90.09
6198;BME280;3132;42.622;23.328;2022-12-29T14:24:37;93583.13;;;6.64;90.90
6198;BME280;3132;42.622;23.328;2022-12-29T14:34:55;93606.59;;;6.69;91.65
6198;BME280;3132;42.622;23.328;2022-12-29T14:37:35;93603.38;;;6.50;92.34
6198;BME280;3132;42.622;23.328;2022-12-29T14:40:17;93616.03;;;6.75;91.34
6198;BME280;3132;42.622;23.328;2022-12-29T14:42:43;93616.03;;;6.75;90.99
6198;BME280;3132;42.622;23.328;2022-12-29T14:47:46;93592.84;;;6.57;91.13
6198;BME280;3132;42.622;23.328;2022-12-29T14:50:16;93609.66;;;6.54;91.86
6198;BME280;3132;42.622;23.328;2022-12-29T14:52:54;93610.63;;;6.25;92.82
6198;BME280;3132;42.622;23.328;2022-12-29T14:55:47;93610.16;;;6.28;92.27
6198;BME280;3132;42.622;23.328;2022-12-29T14:58:31;93613.31;;;6.19;92.94
6198;BME280;3132;42.622;23.328;2022-12-29T15:00:59;93603.63;;;6.03;93.26
6198;BME280;3132;42.622;23.328;2022-12-29T15:03:29;93599.56;;;5.84;93.83
6198;BME280;3132;42.622;23.328;2022-12-29T15:06:04;93600.00;;;5.81;93.83
6198;BME280;3132;42.622;23.328;2022-12-29T15:14:02;93597.41;;;5.58;94.68
6198;BME280;3132;42.622;23.328;2022-12-29T15:16:32;93603.81;;;5.67;94.33
6198;BME280;3132;42.622;23.328;2022-12-29T15:18:58;93604.50;;;5.62;94.36
6198;BME280;3132;42.622;23.328;2022-12-29T15:21:30;93605.84;;;5.53;94.78
6198;BME280;3132;42.622;23.328;2022-12-29T15:23:56;93603.78;;;5.44;94.75
6198;BME280;3132;42.622;23.328;2022-12-29T15:26:22;93607.84;;;5.40;95.03
6198;BME280;3132;42.622;23.328;2022-12-29T15:28:52;93565.28;;;5.24;95.19
6198;BME280;3132;42.622;23.328;2022-12-29T15:31:21;93604.47;;;5.39;95.38
6198;BME280;3132;42.622;23.328;2022-12-29T15:33:53;93596.66;;;5.28;94.71
6198;BME280;3132;42.622;23.328;2022-12-29T15:36:27;93576.06;;;5.21;95.39
6198;BME280;3132;42.622;23.328;2022-12-29T15:38:53;93590.81;;;5.21;95.48
6198;BME280;3132;42.622;23.328;2022-12-29T15:44:11;93583.66;;;5.05;96.77
6198;BME280;3132;42.622;23.328;2022-12-29T15:46:40;93595.91;;;4.97;96.21
6198;BME280;3132;42.622;23.328;2022-12-29T15:49:08;93587.00;;;4.93;96.93
6198;BME280;3132;42.622;23.328;2022-12-29T15:51:37;93572.06;;;4.95;97.60
6198;BME280;3132;42.622;23.328;2022-12-29T15:54:03;93586.00;;;4.94;97.68
6198;BME280;3132;42.622;23.328;2022-12-29T15:56:30;93580.31;;;5.04;96.76
6198;BME280;3132;42.622;23.328;2022-12-29T15:58:57;93577.59;;;4.99;97.28
6198;BME280;3132;42.622;23.328;2022-12-29T16:01:30;93592.44;;;5.04;97.26